CONNECT WITH FLYNQY PILOT TRAINING

Newquay Five Day Forecast

This Weather Widget is provided by the Met Office

EGHQ TAF and METAR

METAR

TAF

TAF COR EGHQ 221830Z 2218/2221 25015KT 9999 BKN025